Nearby METAR Reports

 

KISP - Islip, New York, USA
Distance from station: SW 4mi, 6km
Updated: Sun, 04/11/2021 9:56 am EDT
Mist, Overcast
Mist, Overcast
 Wind from ESE
Wind: ESE 7 mph , 11 km/h
Temperature: 57°F , 14°C
Dew Point: 57°F , 14°C
Humidity: 100%
Barometer: 29.67 inHg , 1004.7 hPa
Summary: Mist
Clouds: Overcast
Visibility: 1 1/2 miles , 2.4 km
Cloud details: Overcast 200 ft
2021/04/11 13:56 KISP 111356Z 12006KT 1 1/2SM BR OVC002 14/14 A2967 RMK AO2 SFC VIS 3 SLP046 T01390139
KHWV - Shirley, New York, USA
Distance from station: E 10mi, 16km
Updated: Sun, 04/11/2021 10:34 am EDT
Mist, Overcast
Mist, Overcast
 Wind from ESE
Wind: ESE 6 mph , 9 km/h
Temperature: 57°F , 14°C
Dew Point: 55°F , 13°C
Humidity: 94%
Barometer: 29.68 inHg , 1005.1 hPa
Summary: Mist
Clouds: Overcast
Visibility: 2 1/2 miles , 4 km
Cloud details: Overcast 300 ft
2021/04/11 14:34 KHWV 111434Z AUTO 12005KT 2 1/2SM BR OVC003 14/13 A2968 RMK AO2 T01440128
 
KFRG - Farmingdale, New York, USA
Distance from station: WSW 20mi, 33km
Updated: Sun, 04/11/2021 10:37 am EDT
Overcast
Overcast
 Wind from ESE
Wind: ESE 10 mph , 17 km/h
Temperature: 57°F , 14°C
Dew Point: 55°F , 13°C
Humidity: 94%
Barometer: 29.65 inHg , 1004.1 hPa
Clouds: Overcast
Visibility: 1 3/4 miles , 2.8 km
Cloud details: Overcast 200 ft
2021/04/11 14:37 KFRG 111437Z 11009KT 1 3/4SM OVC002 14/13 A2965 RMK AO2 SFC VIS 10 T01390133
KBDR - Bridgeport, Connecticut, USA
Distance from station: N 23mi, 37km
Updated: Sun, 04/11/2021 9:52 am EDT
Fog, Overcast
Fog, Overcast
 Wind from ENE
Wind: ENE 8 mph , 13 km/h
Temperature: 54°F , 12°C
Dew Point: 52°F , 11°C
Humidity: 94%
Barometer: 29.68 inHg , 1005.1 hPa
Summary: Fog
Clouds: Overcast
Visibility: 1/4 mile , 0.4 km
Cloud details: Overcast 200 ft
2021/04/11 13:52 KBDR 111352Z 07007KT 1/4SM FG VV002 12/11 A2968 RMK AO2 SLP052 T01170111
 
KFOK - Westhampton Beac, New York, USA
Distance from station: E 23mi, 37km
Updated: Sun, 04/11/2021 10:33 am EDT
Mist, Overcast
Mist, Overcast
 Wind from ESE
Wind: ESE 6 mph , 9 km/h
Temperature: 57°F , 14°C
Dew Point: 55°F , 13°C
Humidity: 94%
Barometer: 29.69 inHg , 1005.4 hPa
Summary: Mist
Clouds: Overcast
Visibility: 2 1/2 miles , 4 km
Cloud details: Overcast 400 ft
2021/04/11 14:33 KFOK 111433Z 12005KT 2 1/2SM BR OVC004 14/13 A2969 RMK AO2 SFC VIS 4 T01390133
KHVN - New Haven/Tweed, Connecticut, USA
Distance from station: NNE 31mi, 50km
Updated: Sun, 04/11/2021 10:44 am EDT
Overcast
Overcast
 Wind from ENE
Wind: ENE 9 mph , 15 km/h
Temperature: 57°F , 14°C
Dew Point: 55°F , 13°C
Humidity: 94%
Barometer: 29.68 inHg , 1005.1 hPa
Clouds: Overcast
Visibility: 10 miles , 16 km
Cloud details: Overcast 600 ft
2021/04/11 14:44 KHVN 111444Z 07008KT 10SM R02/1200V2200FT OVC006 14/13 A2968 RMK AO2 CIG 003V009 T01440128 $
 
KHPN - White Plains, New York, USA
Distance from station: WNW 37mi, 60km
Updated: Sun, 04/11/2021 9:56 am EDT
Fog, Overcast
Fog, Overcast
 Wind from ENE
Wind: ENE 6 mph , 9 km/h
Temperature: 54°F , 12°C
Dew Point: 54°F , 12°C
Humidity: 100%
Barometer: 29.66 inHg , 1004.4 hPa
Summary: Fog
Clouds: Overcast
Visibility: less than 1/4 mile , 0.4 km
Cloud details: Overcast 100 ft
2021/04/11 13:56 KHPN 111356Z 07005KT M1/4SM R16/1600V2200FT FG VV001 12/12 A2966 RMK SLP043
KJFK - Nyc/Jfk Arpt, New York, USA
Distance from station: WSW 40mi, 64km
Updated: Sun, 04/11/2021 9:51 am EDT
Light rain, Mist, Overcast
Light rain, Mist, Overcast
 Wind from E
Wind: E 8 mph , 13 km/h
Temperature: 55°F , 13°C
Dew Point: 55°F , 13°C
Humidity: 100%
Barometer: 29.65 inHg , 1004.1 hPa
Summary: Light rain, Mist
Clouds: Overcast
Visibility: 1/16 mile , 0.1 km
Cloud details: Overcast 200 ft
2021/04/11 13:51 KJFK 111351Z 09007KT 1/16SM R04R/4500VP6000FT -RA BR OVC002 13/13 A2965 RMK AO2 SFC VIS 2 1/2 RAB03 SLP041 P0000 T01330128
 
KDXR - Danbury, Connecticut, USA
Distance from station: NNW 42mi, 68km
Updated: Sun, 04/11/2021 9:53 am EDT
Overcast
Overcast
 Wind from SE
Wind: SE 3 mph , 6 km/h
Temperature: 57°F , 14°C
Dew Point: 54°F , 12°C
Humidity: 88%
Barometer: 29.68 inHg , 1005.1 hPa
Clouds: Overcast
Visibility: 10 miles , 16 km
Cloud details: Overcast 500 ft
2021/04/11 13:53 KDXR 111353Z 14003KT 10SM OVC005 14/12 A2968 RMK AO2 SLP049 T01390122
KHTO - East Hampton, New York, USA
Distance from station: E 43mi, 69km
Updated: Sun, 04/11/2021 10:35 am EDT
Overcast
Overcast
 Wind from ENE
Wind: ENE 5 mph , 7 km/h
Temperature: 55°F , 13°C
Dew Point: 54°F , 12°C
Humidity: 94%
Barometer: 29.70 inHg , 1005.8 hPa
Clouds: Overcast
Visibility: 10 miles , 16 km
Cloud details: Overcast 300 ft
2021/04/11 14:35 KHTO 111435Z AUTO 07004KT 10SM OVC003 13/12 A2970 RMK AO2 T01270124
 
KOXC - Oxford/Waterbury, Connecticut, USA
Distance from station: N 43mi, 70km
Updated: Sun, 04/11/2021 9:51 am EDT
Mist, Mostly cloudy
Mist, Mostly cloudy
 Wind from SSE
Wind: SSE 7 mph , 11 km/h
Temperature: 55°F , 13°C
Dew Point: 55°F , 13°C
Humidity: 100%
Barometer: 29.69 inHg , 1005.4 hPa
Summary: Mist
Clouds: Mostly cloudy
Visibility: 3 miles , 5 km
Cloud details: Mostly cloudy 300 ft
2021/04/11 13:51 KOXC 111351Z 15006KT 3SM BR BKN003 13/13 A2969 RMK AO2 SLP065 T01280128 $
KLGA - Nyc/La Guardia, New York, USA
Distance from station: W 44mi, 70km
Updated: Sun, 04/11/2021 9:55 am EDT
Light rain, Fog, Overcast
Light rain, Fog, Overcast
 Wind from NE
Wind: NE 13 mph , 20 km/h
Temperature: 54°F , 12°C
Dew Point: 52°F , 11°C
Humidity: 94%
Barometer: 29.64 inHg , 1003.7 hPa
Summary: Light rain, Fog
Clouds: Overcast
Visibility: 1/4 mile , 0.4 km
Cloud details: Overcast 300 ft
2021/04/11 13:55 KLGA 111355Z 05011KT 1/4SM R04/1200V1600FT -RA FG VV003 12/11 A2964 RMK AO2 P0000 T01170106
 
KSNC - Chester, Connecticut, USA
Distance from station: NE 47mi, 76km
Updated: Sun, 04/11/2021 10:35 am EDT

 Wind from calm
Wind: Calm
Temperature: 57°F , 14°C
Dew Point: 57°F , 14°C
Humidity: 100%
Barometer: 29.69 inHg , 1005.4 hPa
Visibility: 10 miles , 16 km
2021/04/11 14:35 KSNC 111435Z AUTO 00000KT 10SM 14/14 A2969 RMK AO2
KMMK - Meriden, Connecticut, USA
Distance from station: NNE 48mi, 77km
Updated: Sun, 04/11/2021 10:21 am EDT
Overcast
Overcast
 Wind from N
Wind: N 3 mph , 6 km/h
Temperature: 57°F , 14°C
Dew Point: 54°F , 12°C
Humidity: 88%
Barometer: 29.69 inHg , 1005.4 hPa
Clouds: Overcast
Visibility: 10 miles , 16 km
Cloud details: Overcast 500 ft
2021/04/11 14:21 KMMK 111421Z AUTO 36003KT 10SM OVC005 14/12 A2969 RMK AO2 T01390117
 
KNYC - Nyc/Central Park, New York, USA
Distance from station: W 48mi, 77km
Updated: Sun, 04/11/2021 10:22 am EDT
Light rain, Mist, Overcast
Light rain, Mist, Overcast
 Wind from varies
Wind: varies 6 mph , 9 km/h
Temperature: 55°F , 13°C
Dew Point: 55°F , 13°C
Humidity: 100%
Barometer: 29.66 inHg , 1004.4 hPa
Summary: Light rain, Mist
Clouds: Overcast
Visibility: 2 1/2 miles , 4 km
Cloud details: Overcast 300 ft
2021/04/11 14:22 KNYC 111422Z AUTO VRB05KT 2 1/2SM -RA BR OVC003 13/13 A2966 RMK AO2 P0001 T01330128 $